Impacts TAF Board INFO
FOR SITUATIONAL AWARENESS. NOT TO BE USED FOR FLIGHT PLANNING PURPOSES.
IDs:

KSEA - Seattle-Tacoma Intl, WA, US

Issued at 2047 UTC 14 Aug 2018
Updated at 2203 UTC 14 Aug 2018
Potential Impact None Slight Moderate High
Time<<15/23Z 16/00Z 16/01Z 16/02Z 16/03Z 16/04Z 16/05Z 16/06Z 16/07Z 16/08Z 16/09Z 16/10Z 16/11Z
Type PRVL
VIS >6
CIG --
Cover SCT
FltCat VFR
WX --
WDir 310
WSpd 5
WGst --

Raw TAF
KSEA 142047Z 1421/1524 30007KT 3SM HZ FU SCT050
  FM150000 34006KT P6SM FEW060
  FM150900 VRB04KT P6SM SCT060
  FM151800 21006KT P6SM SCT060
  FM152100 31005KT P6SM SCT060


METAR Board
Radar Display
Forecast Discussion

FOR SITUATIONAL AWARENESS. NOT TO BE USED FOR FLIGHT PLANNING PURPOSES.